Moby Baby — ICEM — position and weather

sailwx.info

Track history (hours):
 
Tides and Currents Weather Stations Pressure Air Temp Water Temp Dewpoint Dewpoint Depression Visibility Wind Speed Wind Dir Waves Ship Positions

Moby Baby

Last reported at 2016-Aug-30 14:21 UTC. Time now 2016-Aug-30 15:06 UTC.
Position N 42°55' E 010°33'.

Length 99 m; draft 4.5 m.

Type: Ship. MMSI: 247049900.

Date/timePositionNaut miles runAvg speedWind from/ knotsBaromVisibWave heightAir tempDewpointWater temp
2016-Aug-30 14:21N 42°55' E 010°33'1214.8
2016-Aug-30 13:33N 42°49' E 010°19'7 6.9
2016-Aug-30 12:33N 42°53' E 010°27'6 1.9
2016-Aug-30 09:32N 42°56' E 010°34'1312.9
2016-Aug-30 08:33N 42°49' E 010°19'13 4.1
2016-Aug-30 05:28N 42°56' E 010°34'1313.8
2016-Aug-30 04:33N 42°49' E 010°19'0 0.0
2016-Aug-29 23:15N 42°49' E 010°19'0 0.0
2016-Aug-29 21:33N 42°49' E 010°19'0 0.0
2016-Aug-29 20:32N 42°49' E 010°19'0 0.2
2016-Aug-29 19:25N 42°49' E 010°20'0 0.0
2016-Aug-29 03:21N 42°49' E 010°19'0 0.0
2016-Aug-29 02:27N 42°49' E 010°19'0 0.0
2016-Aug-29 01:33N 42°49' E 010°19'0 0.0
2016-Aug-29 00:30N 42°49' E 010°19'0 0.0
2016-Aug-28 23:34N 42°49' E 010°19'0 0.0
2016-Aug-28 22:32N 42°49' E 010°19'0 0.0
2016-Aug-28 21:33N 42°49' E 010°19'0 0.0
2016-Aug-28 20:33N 42°49' E 010°19'0 0.0
2016-Aug-28 19:28N 42°49' E 010°19'1314.1
2016-Aug-28 18:33N 42°56' E 010°34'7 6.9
2016-Aug-28 17:33N 42°53' E 010°25'6 6.0
2016-Aug-28 16:33N 42°49' E 010°19'6 6.0
2016-Aug-28 15:31N 42°53' E 010°26'6 6.1
2016-Aug-28 14:32N 42°56' E 010°33'1212.5
2016-Aug-28 13:33N 42°49' E 010°19'7 6.7
2016-Aug-28 12:33N 42°53' E 010°26'6 5.4
2016-Aug-28 11:32N 42°56' E 010°33'0 0.0
2016-Aug-28 10:33N 42°56' E 010°33'1 0.5
2016-Aug-28 09:29N 42°56' E 010°33'1313.5
2016-Aug-28 08:32N 42°49' E 010°19'0 0.1
2016-Aug-28 07:27N 42°49' E 010°19'8 9.2
2016-Aug-28 06:34N 42°54' E 010°28'4 3.9
2016-Aug-28 05:32N 42°56' E 010°33'1211.5
2016-Aug-28 04:28N 42°49' E 010°19'0 0.0
2016-Aug-28 03:33N 42°49' E 010°19'0 0.0
2016-Aug-28 02:33N 42°49' E 010°19'0 0.0
2016-Aug-28 01:31N 42°49' E 010°19'0 0.0
2016-Aug-28 00:33N 42°49' E 010°19'0 0.0
2016-Aug-27 23:33N 42°49' E 010°19'0 0.0
2016-Aug-27 22:33N 42°49' E 010°19'0 0.0
2016-Aug-27 21:33N 42°49' E 010°19'0 0.0
2016-Aug-27 20:33N 42°49' E 010°19'1 0.6
2016-Aug-27 19:32N 42°49' E 010°20'12 9.7
2016-Aug-27 18:17N 42°56' E 010°33'1313.5
2016-Aug-27 17:20N 42°49' E 010°19'5 6.3
2016-Aug-27 16:33N 42°52' E 010°24'8 7.5
2016-Aug-27 15:33N 42°56' E 010°33'7 3.4
2016-Aug-27 13:33N 42°53' E 010°25'7 6.1
2016-Aug-27 12:24N 42°56' E 010°34'1214.0
2016-Aug-27 11:33N 42°49' E 010°21'2 2.3
2016-Aug-27 10:33N 42°51' E 010°23'9 6.5
2016-Aug-27 09:10N 42°56' E 010°33'711.8
2016-Aug-27 08:34N 42°52' E 010°24'5 5.2
2016-Aug-27 07:33N 42°49' E 010°19'8 8.4
2016-Aug-27 06:33N 42°54' E 010°29'8 4.2
2016-Aug-27 04:33N 42°49' E 010°20'0 0.2
2016-Aug-27 03:33N 42°49' E 010°19'0 0.0
2016-Aug-27 02:33N 42°49' E 010°19'0 0.0
2016-Aug-27 01:33N 42°49' E 010°19'0 0.0
2016-Aug-27 00:33N 42°49' E 010°19'0 0.0
2016-Aug-26 23:33N 42°49' E 010°19'0 0.0
2016-Aug-26 22:33N 42°49' E 010°19'0 0.0
2016-Aug-26 20:33N 42°49' E 010°19'0 0.0
2016-Aug-26 19:30N 42°49' E 010°19'1313.8
2016-Aug-26 18:34N 42°56' E 010°34'7 7.0
2016-Aug-26 17:33N 42°53' E 010°25'6 5.5
2016-Aug-26 16:29N 42°49' E 010°19'6 6.3
2016-Aug-26 15:33N 42°53' E 010°25'4 2.7
2016-Aug-26 14:11N 42°54' E 010°30'914.8
2016-Aug-26 13:33N 42°49' E 010°20'7 6.6
2016-Aug-26 12:33N 42°53' E 010°26'6 2.0
2016-Aug-26 09:30N 42°56' E 010°33'13 5.4
2016-Aug-26 07:09N 42°49' E 010°20'0 0.1
2016-Aug-26 02:33N 42°49' E 010°19'0 0.0
2016-Aug-25 22:32N 42°49' E 010°19'0 0.0
2016-Aug-25 21:07N 42°49' E 010°19'0 0.0
2016-Aug-25 20:33N 42°49' E 010°19'0 0.2
2016-Aug-25 19:28N 42°49' E 010°20'6 3.1
2016-Aug-25 17:33N 42°53' E 010°25'6 5.9
2016-Aug-25 16:33N 42°49' E 010°19'6 6.0
2016-Aug-25 15:33N 42°53' E 010°25'7 6.5
2016-Aug-25 14:33N 42°56' E 010°33'1211.8
2016-Aug-25 13:30N 42°49' E 010°19'7 7.2
2016-Aug-25 12:33N 42°53' E 010°26'1 0.4
2016-Aug-25 09:08N 42°53' E 010°28'8 8.1
2016-Aug-25 08:08N 42°49' E 010°19'0 0.0
2016-Aug-25 07:32N 42°49' E 010°19'9 9.1
2016-Aug-25 06:33N 42°54' E 010°30'9 4.4
2016-Aug-25 04:29N 42°49' E 010°19'0 0.0
2016-Aug-25 03:27N 42°49' E 010°19'0 0.0
2016-Aug-25 02:31N 42°49' E 010°19'0 0.0
2016-Aug-25 01:33N 42°49' E 010°19'0 0.0
2016-Aug-25 00:20N 42°49' E 010°19'0 0.0
2016-Aug-24 23:33N 42°49' E 010°19'0 0.0
2016-Aug-24 19:30N 42°49' E 010°19'13 8.9
2016-Aug-24 18:04N 42°56' E 010°33'713.9
2016-Aug-24 17:33N 42°53' E 010°25'6 4.5
2016-Aug-24 16:15N 42°49' E 010°19'6 8.5
2016-Aug-24 15:33N 42°53' E 010°25'7 6.7
2016-Aug-24 14:33N 42°56' E 010°33'1312.6
2016-Aug-24 13:33N 42°49' E 010°19'7 6.8
2016-Aug-24 12:32N 42°53' E 010°26'4 1.4
2016-Aug-24 09:20N 42°54' E 010°32'11 1.4
2016-Aug-24 01:32N 42°49' E 010°19'0 0.0
2016-Aug-24 00:33N 42°49' E 010°19'0 0.0
2016-Aug-23 23:30N 42°49' E 010°19'0 0.0
2016-Aug-23 22:31N 42°49' E 010°19'0 0.0
2016-Aug-23 21:33N 42°49' E 010°19'0 0.0
2016-Aug-23 20:33N 42°49' E 010°19'2 2.1
2016-Aug-23 19:33N 42°50' E 010°22'10 2.0
2016-Aug-23 14:17N 42°56' E 010°33'0 0.0
2016-Aug-23 13:33N 42°56' E 010°33'3 0.6
2016-Aug-23 09:20N 42°54' E 010°31'3 0.7
2016-Aug-23 05:29N 42°56' E 010°33'1313.3
2016-Aug-23 04:32N 42°49' E 010°19'0 0.1
2016-Aug-23 03:29N 42°49' E 010°19'0 0.0
2016-Aug-22 19:32N 42°49' E 010°20'6 2.9
2016-Aug-22 17:33N 42°53' E 010°25'6 5.8
2016-Aug-22 16:33N 42°49' E 010°19'6 5.8
2016-Aug-22 15:33N 42°53' E 010°25'7 6.6
2016-Aug-22 14:32N 42°56' E 010°33'1311.0
2016-Aug-22 13:24N 42°49' E 010°19'6 7.7
2016-Aug-22 12:33N 42°53' E 010°26'6 1.1
2016-Aug-22 07:05N 42°49' E 010°20'1014.7
2016-Aug-22 06:24N 42°54' E 010°32'2 2.3
2016-Aug-22 05:31N 42°56' E 010°33'1212.8
2016-Aug-22 04:33N 42°49' E 010°20'0 0.1
2016-Aug-22 01:34N 42°49' E 010°19'0 0.0
2016-Aug-21 20:33N 42°49' E 010°19'0 0.0
2016-Aug-21 19:32N 42°49' E 010°19'0 0.0
2016-Aug-21 16:20N 42°49' E 010°19'6 7.5
2016-Aug-21 15:33N 42°53' E 010°25'6 6.4
2016-Aug-21 14:32N 42°56' E 010°33'1211.9
2016-Aug-21 13:30N 42°49' E 010°19'11 2.7
2016-Aug-21 09:22N 42°54' E 010°32'2 0.5
2016-Aug-21 05:30N 42°56' E 010°34'13 2.1
2016-Aug-20 23:25N 42°49' E 010°19'0 0.0
2016-Aug-20 22:31N 42°49' E 010°19'0 0.0
2016-Aug-20 21:27N 42°49' E 010°19'0 0.0
2016-Aug-20 20:33N 42°49' E 010°19'9 9.2
2016-Aug-20 19:33N 42°54' E 010°29'2 1.2
2016-Aug-20 18:19N 42°53' E 010°28'7 6.4
2016-Aug-20 17:12N 42°49' E 010°20'1014.6
2016-Aug-20 16:33N 42°54' E 010°31'0 0.1
2016-Aug-20 15:31N 42°54' E 010°31'1010.4
2016-Aug-20 14:31N 42°49' E 010°19'  
Track history (hours):
 
Tides and Currents Weather Stations Pressure Air Temp Water Temp Dewpoint Dewpoint Depression Visibility Wind Speed Wind Dir Waves Ship Positions

Moby Baby

Last reported at 2016-Aug-30 14:21 UTC. Time now 2016-Aug-30 15:06 UTC.
Position N 42°55' E 010°33'.

Length 99 m; draft 4.5 m.

Type: Ship. MMSI: 247049900.

Date/timePositionNaut miles runAvg speedWind from/ knotsBaromVisibWave heightAir tempDewpointWater temp
2016-Aug-30 14:21N 42°55' E 010°33'1214.8
2016-Aug-30 13:33N 42°49' E 010°19'7 6.9
2016-Aug-30 12:33N 42°53' E 010°27'6 1.9
2016-Aug-30 09:32N 42°56' E 010°34'1312.9
2016-Aug-30 08:33N 42°49' E 010°19'13 4.1
2016-Aug-30 05:28N 42°56' E 010°34'1313.8
2016-Aug-30 04:33N 42°49' E 010°19'0 0.0
2016-Aug-29 23:15N 42°49' E 010°19'0 0.0
2016-Aug-29 21:33N 42°49' E 010°19'0 0.0
2016-Aug-29 20:32N 42°49' E 010°19'0 0.2
2016-Aug-29 19:25N 42°49' E 010°20'0 0.0
2016-Aug-29 03:21N 42°49' E 010°19'0 0.0
2016-Aug-29 02:27N 42°49' E 010°19'0 0.0
2016-Aug-29 01:33N 42°49' E 010°19'0 0.0
2016-Aug-29 00:30N 42°49' E 010°19'0 0.0
2016-Aug-28 23:34N 42°49' E 010°19'0 0.0
2016-Aug-28 22:32N 42°49' E 010°19'0 0.0
2016-Aug-28 21:33N 42°49' E 010°19'0 0.0
2016-Aug-28 20:33N 42°49' E 010°19'0 0.0
2016-Aug-28 19:28N 42°49' E 010°19'1314.1
2016-Aug-28 18:33N 42°56' E 010°34'7 6.9
2016-Aug-28 17:33N 42°53' E 010°25'6 6.0
2016-Aug-28 16:33N 42°49' E 010°19'6 6.0
2016-Aug-28 15:31N 42°53' E 010°26'6 6.1
2016-Aug-28 14:32N 42°56' E 010°33'1212.5
2016-Aug-28 13:33N 42°49' E 010°19'7 6.7
2016-Aug-28 12:33N 42°53' E 010°26'6 5.4
2016-Aug-28 11:32N 42°56' E 010°33'0 0.0
2016-Aug-28 10:33N 42°56' E 010°33'1 0.5
2016-Aug-28 09:29N 42°56' E 010°33'1313.5
2016-Aug-28 08:32N 42°49' E 010°19'0 0.1
2016-Aug-28 07:27N 42°49' E 010°19'8 9.2
2016-Aug-28 06:34N 42°54' E 010°28'4 3.9
2016-Aug-28 05:32N 42°56' E 010°33'1211.5
2016-Aug-28 04:28N 42°49' E 010°19'0 0.0
2016-Aug-28 03:33N 42°49' E 010°19'0 0.0
2016-Aug-28 02:33N 42°49' E 010°19'0 0.0
2016-Aug-28 01:31N 42°49' E 010°19'0 0.0
2016-Aug-28 00:33N 42°49' E 010°19'0 0.0
2016-Aug-27 23:33N 42°49' E 010°19'0 0.0
2016-Aug-27 22:33N 42°49' E 010°19'0 0.0
2016-Aug-27 21:33N 42°49' E 010°19'0 0.0
2016-Aug-27 20:33N 42°49' E 010°19'1 0.6
2016-Aug-27 19:32N 42°49' E 010°20'12 9.7
2016-Aug-27 18:17N 42°56' E 010°33'1313.5
2016-Aug-27 17:20N 42°49' E 010°19'5 6.3
2016-Aug-27 16:33N 42°52' E 010°24'8 7.5
2016-Aug-27 15:33N 42°56' E 010°33'7 3.4
2016-Aug-27 13:33N 42°53' E 010°25'7 6.1
2016-Aug-27 12:24N 42°56' E 010°34'1214.0
2016-Aug-27 11:33N 42°49' E 010°21'2 2.3
2016-Aug-27 10:33N 42°51' E 010°23'9 6.5
2016-Aug-27 09:10N 42°56' E 010°33'711.8
2016-Aug-27 08:34N 42°52' E 010°24'5 5.2
2016-Aug-27 07:33N 42°49' E 010°19'8 8.4
2016-Aug-27 06:33N 42°54' E 010°29'8 4.2
2016-Aug-27 04:33N 42°49' E 010°20'0 0.2
2016-Aug-27 03:33N 42°49' E 010°19'0 0.0
2016-Aug-27 02:33N 42°49' E 010°19'0 0.0
2016-Aug-27 01:33N 42°49' E 010°19'0 0.0
2016-Aug-27 00:33N 42°49' E 010°19'0 0.0
2016-Aug-26 23:33N 42°49' E 010°19'0 0.0
2016-Aug-26 22:33N 42°49' E 010°19'0 0.0
2016-Aug-26 20:33N 42°49' E 010°19'0 0.0
2016-Aug-26 19:30N 42°49' E 010°19'1313.8
2016-Aug-26 18:34N 42°56' E 010°34'7 7.0
2016-Aug-26 17:33N 42°53' E 010°25'6 5.5
2016-Aug-26 16:29N 42°49' E 010°19'6 6.3
2016-Aug-26 15:33N 42°53' E 010°25'4 2.7
2016-Aug-26 14:11N 42°54' E 010°30'914.8
2016-Aug-26 13:33N 42°49' E 010°20'7 6.6
2016-Aug-26 12:33N 42°53' E 010°26'6 2.0
2016-Aug-26 09:30N 42°56' E 010°33'13 5.4
2016-Aug-26 07:09N 42°49' E 010°20'0 0.1
2016-Aug-26 02:33N 42°49' E 010°19'0 0.0
2016-Aug-25 22:32N 42°49' E 010°19'0 0.0
2016-Aug-25 21:07N 42°49' E 010°19'0 0.0
2016-Aug-25 20:33N 42°49' E 010°19'0 0.2
2016-Aug-25 19:28N 42°49' E 010°20'6 3.1
2016-Aug-25 17:33N 42°53' E 010°25'6 5.9
2016-Aug-25 16:33N 42°49' E 010°19'6 6.0
2016-Aug-25 15:33N 42°53' E 010°25'7 6.5
2016-Aug-25 14:33N 42°56' E 010°33'1211.8
2016-Aug-25 13:30N 42°49' E 010°19'7 7.2
2016-Aug-25 12:33N 42°53' E 010°26'1 0.4
2016-Aug-25 09:08N 42°53' E 010°28'8 8.1
2016-Aug-25 08:08N 42°49' E 010°19'0 0.0
2016-Aug-25 07:32N 42°49' E 010°19'9 9.1
2016-Aug-25 06:33N 42°54' E 010°30'9 4.4
2016-Aug-25 04:29N 42°49' E 010°19'0 0.0
2016-Aug-25 03:27N 42°49' E 010°19'0 0.0
2016-Aug-25 02:31N 42°49' E 010°19'0 0.0
2016-Aug-25 01:33N 42°49' E 010°19'0 0.0
2016-Aug-25 00:20N 42°49' E 010°19'0 0.0
2016-Aug-24 23:33N 42°49' E 010°19'0 0.0
2016-Aug-24 19:30N 42°49' E 010°19'13 8.9
2016-Aug-24 18:04N 42°56' E 010°33'713.9
2016-Aug-24 17:33N 42°53' E 010°25'6 4.5
2016-Aug-24 16:15N 42°49' E 010°19'6 8.5
2016-Aug-24 15:33N 42°53' E 010°25'7 6.7
2016-Aug-24 14:33N 42°56' E 010°33'1312.6
2016-Aug-24 13:33N 42°49' E 010°19'7 6.8
2016-Aug-24 12:32N 42°53' E 010°26'4 1.4
2016-Aug-24 09:20N 42°54' E 010°32'11 1.4
2016-Aug-24 01:32N 42°49' E 010°19'0 0.0
2016-Aug-24 00:33N 42°49' E 010°19'0 0.0
2016-Aug-23 23:30N 42°49' E 010°19'0 0.0
2016-Aug-23 22:31N 42°49' E 010°19'0 0.0
2016-Aug-23 21:33N 42°49' E 010°19'0 0.0
2016-Aug-23 20:33N 42°49' E 010°19'2 2.1
2016-Aug-23 19:33N 42°50' E 010°22'10 2.0
2016-Aug-23 14:17N 42°56' E 010°33'0 0.0
2016-Aug-23 13:33N 42°56' E 010°33'3 0.6
2016-Aug-23 09:20N 42°54' E 010°31'3 0.7
2016-Aug-23 05:29N 42°56' E 010°33'1313.3
2016-Aug-23 04:32N 42°49' E 010°19'0 0.1
2016-Aug-23 03:29N 42°49' E 010°19'0 0.0
2016-Aug-22 19:32N 42°49' E 010°20'6 2.9
2016-Aug-22 17:33N 42°53' E 010°25'6 5.8
2016-Aug-22 16:33N 42°49' E 010°19'6 5.8
2016-Aug-22 15:33N 42°53' E 010°25'7 6.6
2016-Aug-22 14:32N 42°56' E 010°33'1311.0
2016-Aug-22 13:24N 42°49' E 010°19'6 7.7
2016-Aug-22 12:33N 42°53' E 010°26'6 1.1
2016-Aug-22 07:05N 42°49' E 010°20'1014.7
2016-Aug-22 06:24N 42°54' E 010°32'2 2.3
2016-Aug-22 05:31N 42°56' E 010°33'1212.8
2016-Aug-22 04:33N 42°49' E 010°20'0 0.1
2016-Aug-22 01:34N 42°49' E 010°19'0 0.0
2016-Aug-21 20:33N 42°49' E 010°19'0 0.0
2016-Aug-21 19:32N 42°49' E 010°19'0 0.0
2016-Aug-21 16:20N 42°49' E 010°19'6 7.5
2016-Aug-21 15:33N 42°53' E 010°25'6 6.4
2016-Aug-21 14:32N 42°56' E 010°33'1211.9
2016-Aug-21 13:30N 42°49' E 010°19'11 2.7
2016-Aug-21 09:22N 42°54' E 010°32'2 0.5
2016-Aug-21 05:30N 42°56' E 010°34'13 2.1
2016-Aug-20 23:25N 42°49' E 010°19'0 0.0
2016-Aug-20 22:31N 42°49' E 010°19'0 0.0
2016-Aug-20 21:27N 42°49' E 010°19'0 0.0
2016-Aug-20 20:33N 42°49' E 010°19'9 9.2
2016-Aug-20 19:33N 42°54' E 010°29'2 1.2
2016-Aug-20 18:19N 42°53' E 010°28'7 6.4
2016-Aug-20 17:12N 42°49' E 010°20'1014.6
2016-Aug-20 16:33N 42°54' E 010°31'0 0.1
2016-Aug-20 15:31N 42°54' E 010°31'1010.4
2016-Aug-20 14:31N 42°49' E 010°19'  

Dump ship's entire track history